KAAF/AAF METAR and TAF weather

Enter ICAO airport designator
Station Type Date Time Source
KAAF METAR 2018/07/20 13:53 UTC NOAA

KAAF 201353Z AUTO 23006KT 10SM FEW050 29/27 A2994 RMK AO2 SLP137 T02940267


Station Type Date Time Source
KAAF Decoded METAR 2018/07/20 13:53 UTC NOAA

APALACHICOLA MUNICIPAL AIRPORT, FL, United States (KAAF) 29-44N 085-01W 5M
Jul 20, 2018 - 09:53 AM EDT / 2018.07.20 1353 UTC
Wind: from the SW (230 degrees) at 7 MPH (6 KT):0
Visibility: 10 mile(s):0
Sky conditions: mostly clear
Temperature: 84.9 F (29.4 C)
Dew Point: 80.1 F (26.7 C)
Relative Humidity: 85%
Pressure (altimeter): 29.94 in. Hg (1013 hPa)
ob: KAAF 201353Z AUTO 23006KT 10SM FEW050 29/27 A2994 RMK AO2 SLP137 T02940267
cycle: 14

Station Type Date Time Source
KAAF TAF UTC NOAA

Error!


Example: see airport list